createdAt,value
2018-08-09T18:39:44.709Z,3.20
2018-08-09T18:42:21.898Z,3.23
2018-08-09T18:45:00.654Z,3.50
2018-08-09T18:47:37.797Z,3.50
2018-08-09T18:50:16.766Z,3.83
2018-08-09T18:52:53.746Z,4.07
2018-08-09T18:55:30.188Z,4.00
2018-08-09T18:58:06.894Z,3.87
2018-08-09T19:00:43.627Z,3.57
2018-08-09T19:03:21.301Z,3.87
2018-08-09T19:05:57.947Z,3.37
2018-08-09T19:08:39.065Z,3.80
2018-08-09T19:11:15.573Z,4.07
2018-08-09T19:13:52.789Z,3.80
2018-08-09T19:16:29.220Z,3.73
2018-08-09T19:19:07.535Z,3.67
2018-08-09T19:21:44.324Z,4.23
2018-08-09T19:24:21.704Z,3.63
2018-08-09T19:26:58.277Z,3.80
2018-08-09T19:29:39.999Z,4.30
2018-08-09T19:32:17.740Z,3.90
2018-08-09T19:34:58.553Z,3.93
2018-08-09T19:37:35.916Z,3.50
2018-08-09T19:40:16.036Z,4.27
2018-08-09T19:42:57.206Z,3.70
2018-08-09T19:45:34.159Z,3.77
2018-08-09T19:48:11.634Z,3.77
2018-08-09T19:50:50.756Z,3.77
2018-08-09T19:53:29.014Z,3.77
2018-08-09T19:56:08.430Z,4.27
2018-08-09T19:58:47.469Z,3.80
2018-08-09T20:01:28.867Z,4.23
2018-08-09T20:04:10.327Z,3.60
2018-08-09T20:06:53.756Z,4.03
2018-08-09T20:09:32.568Z,4.00
2018-08-09T20:12:11.551Z,3.10
2018-08-09T20:14:49.611Z,3.90
2018-08-09T20:17:30.828Z,4.03
2018-08-09T20:20:08.407Z,4.20
2018-08-09T20:22:46.530Z,3.30
2018-08-09T20:25:23.396Z,3.17
2018-08-09T20:28:01.321Z,3.30
2018-08-09T20:30:37.917Z,2.87
2018-08-09T20:33:21.887Z,2.90
2018-08-09T20:36:00.145Z,2.90
2018-08-09T20:38:37.050Z,2.80
2018-08-09T20:41:14.520Z,3.07
2018-08-09T20:43:56.790Z,2.47
2018-08-09T20:46:35.722Z,2.63
2018-08-09T20:49:15.551Z,2.53
2018-08-09T20:51:53.072Z,2.70
2018-08-09T20:54:37.322Z,2.60
2018-08-09T20:57:14.304Z,2.57
2018-08-09T20:59:56.730Z,2.60
2018-08-09T21:02:34.077Z,2.20
2018-08-09T21:05:12.821Z,2.50
2018-08-09T21:07:49.227Z,2.67
2018-08-09T21:10:27.568Z,2.23
2018-08-09T21:13:04.917Z,2.47
2018-08-09T21:15:43.247Z,2.30
2018-08-09T21:18:19.984Z,2.60
2018-08-09T21:21:01.861Z,2.93
2018-08-09T21:23:40.648Z,2.93
2018-08-09T21:26:19.631Z,2.50
2018-08-09T21:28:57.309Z,2.87
2018-08-09T21:31:34.097Z,2.60
2018-08-09T21:34:10.691Z,2.10
2018-08-09T21:36:47.286Z,2.33
2018-08-09T21:39:24.035Z,2.30
2018-08-09T21:42:09.101Z,2.40
2018-08-09T21:44:45.676Z,2.53
2018-08-09T21:47:22.727Z,2.10
2018-08-09T21:50:00.184Z,2.40
2018-08-09T21:52:39.104Z,2.10
2018-08-09T21:55:17.741Z,2.87
2018-08-09T21:58:01.414Z,2.60
2018-08-09T22:00:55.167Z,1.97
2018-08-09T22:03:37.344Z,2.10
2018-08-09T22:06:19.730Z,2.20
2018-08-09T22:09:02.836Z,2.10
2018-08-09T22:11:44.615Z,2.20
2018-08-09T22:14:26.467Z,2.20
2018-08-09T22:17:09.428Z,2.07
2018-08-09T22:19:53.445Z,2.27
2018-08-09T22:22:29.815Z,2.27
2018-08-09T22:25:09.221Z,2.43
2018-08-09T22:27:46.775Z,2.23
2018-08-09T22:30:23.981Z,2.20
2018-08-09T22:33:06.272Z,2.10
2018-08-09T22:35:44.519Z,2.20
2018-08-09T22:38:21.173Z,2.10
2018-08-09T22:40:58.639Z,2.20
2018-08-09T22:43:35.515Z,2.07
2018-08-09T22:46:12.399Z,2.20
2018-08-09T22:48:49.692Z,1.90
2018-08-09T22:51:29.222Z,1.67
2018-08-09T22:54:08.124Z,2.23
2018-08-09T22:56:44.926Z,2.00
2018-08-09T22:59:25.443Z,2.17
2018-08-09T23:02:05.129Z,2.77
2018-08-09T23:04:41.655Z,2.30
2018-08-09T23:07:18.562Z,2.17
2018-08-09T23:09:55.095Z,2.07
2018-08-09T23:12:32.419Z,2.40
2018-08-09T23:15:10.337Z,2.10
2018-08-09T23:17:47.742Z,2.00
2018-08-09T23:20:24.899Z,1.90
2018-08-09T23:23:01.735Z,2.20
2018-08-09T23:25:38.055Z,2.27
2018-08-09T23:28:16.930Z,2.17
2018-08-09T23:30:53.495Z,2.10
2018-08-09T23:33:38.757Z,1.80
2018-08-09T23:36:15.300Z,2.03
2018-08-09T23:38:52.380Z,2.10
2018-08-09T23:41:28.405Z,2.10
2018-08-09T23:44:08.997Z,2.27
2018-08-09T23:46:45.552Z,1.77
2018-08-09T23:49:27.715Z,1.80
2018-08-09T23:52:04.008Z,2.00
2018-08-09T23:54:47.942Z,1.97
2018-08-09T23:57:24.230Z,2.00
